Time;durP1;ratioP1;P1;durP2;ratioP2;P2;SDS_P1;SDS_P2;PMS_P1;PMS_P2;Temp;Humidity;BMP_temperature;BMP_pressure;BME280_temperature;BME280_humidity;BME280_pressure;Samples;Min_cycle;Max_cycle;Signal;HPM_P1;HPM_P2
2021/10/24 00:00:05;;;;;;;7.20;3.58;;;;;;;;;;4977956;28;20098;-86
2021/10/24 00:02:31;;;;;;;5.28;3.40;;;;;;;;;;4979292;28;20026;-86
2021/10/24 00:04:57;;;;;;;4.22;2.58;;;;;;;;;;4978813;28;20046;-86
2021/10/24 00:07:23;;;;;;;5.40;2.65;;;;;;;;;;4978759;28;20069;-86
2021/10/24 00:09:50;;;;;;;7.70;2.67;;;;;;;;;;4978574;28;20126;-86
2021/10/24 00:12:16;;;;;;;4.40;2.83;;;;;;;;;;4988258;28;20022;-86
2021/10/24 00:14:42;;;;;;;7.07;3.38;;;;;;;;;;4995007;28;20030;-86
2021/10/24 00:17:08;;;;;;;4.82;2.40;;;;;;;;;;4995352;28;20030;-86
2021/10/24 00:19:35;;;;;;;5.03;2.50;;;;;;;;;;4995235;28;20125;-85
2021/10/24 00:22:01;;;;;;;3.97;2.45;;;;;;;;;;4994916;28;20125;-86
2021/10/24 00:24:27;;;;;;;3.83;2.53;;;;;;;;;;4981547;28;21308;-86
2021/10/24 00:26:53;;;;;;;4.13;2.53;;;;;;;;;;5008716;28;20042;-86
2021/10/24 00:29:19;;;;;;;4.90;2.40;;;;;;;;;;4996089;28;20045;-86
2021/10/24 00:31:45;;;;;;;4.50;2.05;;;;;;;;;;4996338;28;20084;-86
2021/10/24 00:34:11;;;;;;;3.83;2.65;;;;;;;;;;4994131;28;20015;-86
2021/10/24 00:36:37;;;;;;;4.43;2.60;;;;;;;;;;4959312;28;20482;-86
2021/10/24 00:39:03;;;;;;;6.80;2.75;;;;;;;;;;4970587;28;20034;-86
2021/10/24 00:41:31;;;;;;;6.55;2.92;;;;;;;;;;4992506;28;20670;-86
2021/10/24 00:43:57;;;;;;;4.63;2.80;;;;;;;;;;4978245;28;20034;-86
2021/10/24 00:46:23;;;;;;;6.82;3.10;;;;;;;;;;4978409;28;20026;-86
2021/10/24 00:48:49;;;;;;;8.50;2.45;;;;;;;;;;4995394;28;20359;-86
2021/10/24 00:51:15;;;;;;;5.13;2.22;;;;;;;;;;4978243;28;20018;-86
2021/10/24 00:53:41;;;;;;;7.95;3.08;;;;;;;;;;4978490;28;20481;-86
2021/10/24 00:56:08;;;;;;;4.35;2.88;;;;;;;;;;4978287;28;20026;-86
2021/10/24 00:58:34;;;;;;;12.35;3.40;;;;;;;;;;4995862;28;20035;-86
2021/10/24 01:01:02;;;;;;;6.53;2.88;;;;;;;;;;4979053;28;20036;-85
2021/10/24 01:03:28;;;;;;;4.22;2.20;;;;;;;;;;4978042;28;20084;-86
2021/10/24 01:05:55;;;;;;;6.07;2.95;;;;;;;;;;4984540;28;20120;-86
2021/10/24 01:08:21;;;;;;;9.77;2.90;;;;;;;;;;5014509;28;20057;-86
2021/10/24 01:10:47;;;;;;;4.78;2.65;;;;;;;;;;4994445;28;20030;-86
2021/10/24 01:13:13;;;;;;;3.63;2.40;;;;;;;;;;4993525;28;20026;-86
2021/10/24 01:15:39;;;;;;;4.85;2.30;;;;;;;;;;4978188;28;20026;-86
2021/10/24 01:18:07;;;;;;;5.97;2.55;;;;;;;;;;4976139;28;20470;-86
2021/10/24 01:20:33;;;;;;;3.55;2.30;;;;;;;;;;4995196;28;20033;-86
2021/10/24 01:22:59;;;;;;;5.25;2.42;;;;;;;;;;4991292;28;20030;-86
2021/10/24 01:25:25;;;;;;;4.55;2.38;;;;;;;;;;5002049;28;20058;-86
2021/10/24 01:27:51;;;;;;;3.60;2.22;;;;;;;;;;4979553;28;20169;-86
2021/10/24 01:30:18;;;;;;;3.72;2.10;;;;;;;;;;4991530;28;20026;-86
2021/10/24 01:32:44;;;;;;;4.78;2.35;;;;;;;;;;4977941;28;20022;-86
2021/10/24 01:35:10;;;;;;;5.00;2.30;;;;;;;;;;4975296;28;20030;-86
2021/10/24 01:37:37;;;;;;;6.85;2.58;;;;;;;;;;4958092;28;20386;-85
2021/10/24 01:40:05;;;;;;;5.85;2.17;;;;;;;;;;4975537;28;20473;-85
2021/10/24 01:42:32;;;;;;;4.30;2.25;;;;;;;;;;4969313;28;20034;-86
2021/10/24 01:44:58;;;;;;;4.97;1.98;;;;;;;;;;4977206;28;20080;-86
2021/10/24 01:47:24;;;;;;;3.47;2.10;;;;;;;;;;4993033;28;20117;-86
2021/10/24 01:49:50;;;;;;;5.63;2.42;;;;;;;;;;4993182;28;20030;-86
2021/10/24 01:52:16;;;;;;;4.28;1.92;;;;;;;;;;4977019;28;20272;-86
2021/10/24 01:54:42;;;;;;;4.60;2.05;;;;;;;;;;4977449;28;20164;-86
2021/10/24 01:57:09;;;;;;;4.00;2.17;;;;;;;;;;4976883;28;20397;-86
2021/10/24 01:59:35;;;;;;;4.55;2.47;;;;;;;;;;4976441;28;20041;-86
2021/10/24 02:02:01;;;;;;;6.05;2.15;;;;;;;;;;4976908;28;20051;-86
2021/10/24 02:04:27;;;;;;;5.28;2.20;;;;;;;;;;4981194;28;20029;-86
2021/10/24 02:06:53;;;;;;;6.70;2.70;;;;;;;;;;5004763;28;20114;-86
2021/10/24 02:09:19;;;;;;;6.57;2.25;;;;;;;;;;4987514;28;20019;-86
2021/10/24 02:11:45;;;;;;;5.18;2.47;;;;;;;;;;4976813;28;20034;-86
2021/10/24 02:14:11;;;;;;;6.28;2.45;;;;;;;;;;4977209;28;20507;-86
2021/10/24 02:16:37;;;;;;;6.97;2.78;;;;;;;;;;4977011;28;20019;-86
2021/10/24 02:19:03;;;;;;;3.55;2.13;;;;;;;;;;4977108;28;20026;-86
2021/10/24 02:21:30;;;;;;;4.78;2.30;;;;;;;;;;4993109;28;20381;-86
2021/10/24 02:23:56;;;;;;;4.10;2.60;;;;;;;;;;4998353;28;20117;-86
2021/10/24 02:26:22;;;;;;;6.60;2.45;;;;;;;;;;5008133;28;20046;-86
2021/10/24 02:28:48;;;;;;;6.80;2.83;;;;;;;;;;4978189;28;20073;-86
2021/10/24 02:31:14;;;;;;;5.55;3.00;;;;;;;;;;4980478;28;20069;-86
2021/10/24 02:33:40;;;;;;;5.13;2.53;;;;;;;;;;4980618;28;20606;-86
2021/10/24 02:36:06;;;;;;;7.30;3.45;;;;;;;;;;4980327;28;20101;-86
2021/10/24 02:38:32;;;;;;;6.13;3.25;;;;;;;;;;4980423;28;20030;-86
2021/10/24 02:40:58;;;;;;;9.02;3.50;;;;;;;;;;4978376;28;20377;-86
2021/10/24 02:43:24;;;;;;;7.80;2.70;;;;;;;;;;4979925;28;20041;-86
2021/10/24 02:45:49;;;;;;;6.80;3.10;;;;;;;;;;4984719;28;20424;-86
2021/10/24 02:48:16;;;;;;;7.53;3.90;;;;;;;;;;4979798;28;20022;-86
2021/10/24 02:50:42;;;;;;;6.50;3.40;;;;;;;;;;4996990;28;20466;-86
2021/10/24 02:53:08;;;;;;;7.60;2.97;;;;;;;;;;4980511;28;20045;-86
2021/10/24 02:55:34;;;;;;;8.00;3.65;;;;;;;;;;4980367;28;20037;-86
2021/10/24 02:58:00;;;;;;;8.10;3.83;;;;;;;;;;4980146;28;20034;-86
2021/10/24 03:00:26;;;;;;;6.00;2.95;;;;;;;;;;4980569;28;20030;-86
2021/10/24 03:02:52;;;;;;;8.82;3.38;;;;;;;;;;4980402;28;20489;-86
2021/10/24 03:05:18;;;;;;;6.03;3.13;;;;;;;;;;4981304;28;20019;-86
2021/10/24 03:07:44;;;;;;;8.02;3.10;;;;;;;;;;4999914;28;20023;-86
2021/10/24 03:10:12;;;;;;;5.63;3.03;;;;;;;;;;4980327;28;20026;-86
2021/10/24 03:12:38;;;;;;;6.45;3.05;;;;;;;;;;4980158;28;20504;-86
2021/10/24 03:15:04;;;;;;;9.18;3.15;;;;;;;;;;4980356;28;20037;-86
2021/10/24 03:17:31;;;;;;;5.65;2.65;;;;;;;;;;4981116;28;20027;-86
2021/10/24 03:19:57;;;;;;;6.47;2.90;;;;;;;;;;4996227;28;20030;-86
2021/10/24 03:22:23;;;;;;;9.18;3.80;;;;;;;;;;4979435;28;20034;-86
2021/10/24 03:24:48;;;;;;;4.70;3.30;;;;;;;;;;4996636;28;20022;-86
2021/10/24 03:27:14;;;;;;;4.63;2.95;;;;;;;;;;4995726;28;20053;-86
2021/10/24 03:29:40;;;;;;;5.68;3.15;;;;;;;;;;4996498;28;20037;-86
2021/10/24 03:32:07;;;;;;;6.18;3.30;;;;;;;;;;4996192;28;20089;-86
2021/10/24 03:34:32;;;;;;;6.82;3.15;;;;;;;;;;4992662;28;20126;-86
2021/10/24 03:36:58;;;;;;;5.65;2.40;;;;;;;;;;4990799;28;20070;-86
2021/10/24 03:39:24;;;;;;;6.18;3.33;;;;;;;;;;4979924;28;20023;-86
2021/10/24 03:41:50;;;;;;;4.95;2.85;;;;;;;;;;4979435;28;20726;-86
2021/10/24 03:44:16;;;;;;;5.10;2.83;;;;;;;;;;4979851;28;20018;-86
2021/10/24 03:46:42;;;;;;;5.57;3.35;;;;;;;;;;4979528;28;20470;-86
2021/10/24 03:49:08;;;;;;;5.47;2.63;;;;;;;;;;4979369;28;20022;-86
2021/10/24 03:51:34;;;;;;;3.97;2.40;;;;;;;;;;4979446;28;20386;-86
2021/10/24 03:54:00;;;;;;;8.55;3.20;;;;;;;;;;4995346;28;20037;-86
2021/10/24 03:56:26;;;;;;;4.97;2.75;;;;;;;;;;4979111;28;20070;-86
2021/10/24 03:58:52;;;;;;;4.68;2.75;;;;;;;;;;4991919;28;20121;-86
2021/10/24 04:01:18;;;;;;;5.45;2.97;;;;;;;;;;4977864;28;20023;-86
2021/10/24 04:03:44;;;;;;;4.80;3.10;;;;;;;;;;4997028;28;20081;-86
2021/10/24 04:06:11;;;;;;;6.05;2.72;;;;;;;;;;4979535;28;20030;-86
2021/10/24 04:08:37;;;;;;;5.22;2.80;;;;;;;;;;4981661;28;20023;-86
2021/10/24 04:11:03;;;;;;;6.57;2.80;;;;;;;;;;4994622;28;20019;-86
2021/10/24 04:13:29;;;;;;;7.32;3.00;;;;;;;;;;4994985;28;20085;-86
2021/10/24 04:15:55;;;;;;;3.60;2.55;;;;;;;;;;4992913;28;20028;-86
2021/10/24 04:18:21;;;;;;;9.48;3.22;;;;;;;;;;4976139;28;20094;-86
2021/10/24 04:20:47;;;;;;;4.78;2.50;;;;;;;;;;4979180;28;20027;-86
2021/10/24 04:23:13;;;;;;;4.95;2.42;;;;;;;;;;4992298;28;20034;-86
2021/10/24 04:25:39;;;;;;;5.70;2.78;;;;;;;;;;4979205;28;20047;-86
2021/10/24 04:28:05;;;;;;;6.20;2.95;;;;;;;;;;4976273;28;20027;-86
2021/10/24 04:30:31;;;;;;;4.05;2.38;;;;;;;;;;4994345;28;20022;-86
2021/10/24 04:32:57;;;;;;;4.60;2.58;;;;;;;;;;4978774;28;20037;-86
2021/10/24 04:35:23;;;;;;;4.82;3.03;;;;;;;;;;4996029;28;20026;-86
2021/10/24 04:37:49;;;;;;;5.32;2.30;;;;;;;;;;4991266;28;20085;-86
2021/10/24 04:40:15;;;;;;;3.85;2.47;;;;;;;;;;4978493;28;20035;-86
2021/10/24 04:42:41;;;;;;;9.00;3.63;;;;;;;;;;4992692;28;20025;-86
2021/10/24 04:45:08;;;;;;;6.75;2.58;;;;;;;;;;4994776;28;20015;-86
2021/10/24 04:47:34;;;;;;;5.78;2.65;;;;;;;;;;4978801;28;20023;-85
2021/10/24 04:50:00;;;;;;;7.32;2.92;;;;;;;;;;4979324;28;20063;-85
2021/10/24 04:52:26;;;;;;;5.13;2.70;;;;;;;;;;4979057;28;20458;-85
2021/10/24 04:54:52;;;;;;;3.95;2.53;;;;;;;;;;4979359;28;20084;-85
2021/10/24 04:57:18;;;;;;;4.22;2.90;;;;;;;;;;4994857;28;20057;-85
2021/10/24 04:59:44;;;;;;;3.90;2.15;;;;;;;;;;4990766;28;20026;-85
2021/10/24 05:02:10;;;;;;;4.53;3.15;;;;;;;;;;4976449;28;20376;-85
2021/10/24 05:04:38;;;;;;;5.55;3.60;;;;;;;;;;4990477;28;20026;-85
2021/10/24 05:07:04;;;;;;;4.95;2.90;;;;;;;;;;4978515;28;20029;-85
2021/10/24 05:09:30;;;;;;;3.78;2.63;;;;;;;;;;4991387;28;20034;-85
2021/10/24 05:11:56;;;;;;;5.25;2.90;;;;;;;;;;4981621;28;20045;-86
2021/10/24 05:14:22;;;;;;;5.45;2.60;;;;;;;;;;4993640;28;20019;-85
2021/10/24 05:16:48;;;;;;;5.28;2.45;;;;;;;;;;4996071;28;20374;-85
2021/10/24 05:19:14;;;;;;;5.18;2.80;;;;;;;;;;4978272;28;20023;-84
2021/10/24 05:21:40;;;;;;;4.43;2.53;;;;;;;;;;4978434;28;20030;-85
2021/10/24 05:24:06;;;;;;;4.53;2.60;;;;;;;;;;4977781;28;20100;-85
2021/10/24 05:26:32;;;;;;;4.10;2.33;;;;;;;;;;4994573;28;20490;-85
2021/10/24 05:28:58;;;;;;;6.18;2.50;;;;;;;;;;4995465;28;20030;-85
2021/10/24 05:31:24;;;;;;;5.07;2.95;;;;;;;;;;4995045;28;20030;-85
2021/10/24 05:33:50;;;;;;;4.80;2.90;;;;;;;;;;4978091;28;20474;-85
2021/10/24 05:36:16;;;;;;;6.32;2.72;;;;;;;;;;4995145;28;20030;-85
2021/10/24 05:38:42;;;;;;;4.20;2.60;;;;;;;;;;4977417;28;20074;-85
2021/10/24 05:41:08;;;;;;;6.05;2.42;;;;;;;;;;4975561;28;20671;-86
2021/10/24 05:43:34;;;;;;;5.53;2.97;;;;;;;;;;4957741;28;20026;-86
2021/10/24 05:46:00;;;;;;;4.65;2.50;;;;;;;;;;4975460;28;20033;-86
2021/10/24 05:48:26;;;;;;;5.38;3.03;;;;;;;;;;4994026;28;20109;-86
2021/10/24 05:50:52;;;;;;;6.40;3.30;;;;;;;;;;4975795;28;20033;-86
2021/10/24 05:53:18;;;;;;;4.15;2.42;;;;;;;;;;4957474;28;20034;-86
2021/10/24 05:55:46;;;;;;;5.18;2.40;;;;;;;;;;4993926;28;20082;-86
2021/10/24 05:58:12;;;;;;;6.88;2.28;;;;;;;;;;4969028;28;20033;-86
2021/10/24 06:00:38;;;;;;;4.80;2.63;;;;;;;;;;4988251;28;20031;-86
2021/10/24 06:03:05;;;;;;;5.05;2.60;;;;;;;;;;4985350;28;20026;-86
2021/10/24 06:05:31;;;;;;;4.50;2.50;;;;;;;;;;4977733;28;20038;-86
2021/10/24 06:07:57;;;;;;;4.75;3.15;;;;;;;;;;4968505;28;20870;-86
2021/10/24 06:10:29;;;;;;;5.05;2.80;;;;;;;;;;5012959;28;20026;-86
2021/10/24 06:12:55;;;;;;;7.88;3.00;;;;;;;;;;5012053;28;20045;-86
2021/10/24 06:15:22;;;;;;;7.47;2.97;;;;;;;;;;4992863;28;20038;-86
2021/10/24 06:17:49;;;;;;;4.35;2.88;;;;;;;;;;4989587;28;20023;-86
2021/10/24 06:20:15;;;;;;;4.20;3.05;;;;;;;;;;4974833;28;20035;-85
2021/10/24 06:22:41;;;;;;;6.28;3.20;;;;;;;;;;4963424;28;20456;-86
2021/10/24 06:25:08;;;;;;;4.68;2.83;;;;;;;;;;4985065;28;20376;-86
2021/10/24 06:27:38;;;;;;;5.30;3.50;;;;;;;;;;4990894;28;20168;-85
2021/10/24 06:30:05;;;;;;;4.82;3.10;;;;;;;;;;4976777;28;20106;-85
2021/10/24 06:32:31;;;;;;;7.75;3.65;;;;;;;;;;4977228;28;20169;-85
2021/10/24 06:34:57;;;;;;;5.93;4.22;;;;;;;;;;4995123;28;20062;-85
2021/10/24 06:37:23;;;;;;;5.35;3.47;;;;;;;;;;4995652;28;20034;-85
2021/10/24 06:39:49;;;;;;;9.32;4.40;;;;;;;;;;4981774;28;20034;-85
2021/10/24 06:42:15;;;;;;;6.40;3.65;;;;;;;;;;4988321;28;20643;-85
2021/10/24 06:44:42;;;;;;;7.25;3.90;;;;;;;;;;4977373;28;20023;-85
2021/10/24 06:47:08;;;;;;;6.95;3.85;;;;;;;;;;4979253;28;20549;-85
2021/10/24 06:49:34;;;;;;;6.15;3.70;;;;;;;;;;4974326;28;20374;-86
2021/10/24 06:52:05;;;;;;;6.78;3.80;;;;;;;;;;4975107;28;20030;-85
2021/10/24 06:54:31;;;;;;;8.07;4.28;;;;;;;;;;4985954;28;20019;-85
2021/10/24 06:56:57;;;;;;;7.78;4.53;;;;;;;;;;4977632;28;20023;-84
2021/10/24 06:59:23;;;;;;;10.23;3.92;;;;;;;;;;4975594;28;20026;-86
2021/10/24 07:01:50;;;;;;;7.93;3.75;;;;;;;;;;4976295;28;20022;-87
2021/10/24 07:04:16;;;;;;;8.45;3.90;;;;;;;;;;4988420;28;20066;-85
2021/10/24 07:06:42;;;;;;;8.13;4.18;;;;;;;;;;4975107;28;20061;-85
2021/10/24 07:09:08;;;;;;;8.18;4.20;;;;;;;;;;4984115;28;20054;-84
2021/10/24 07:11:34;;;;;;;8.98;4.45;;;;;;;;;;4982277;28;20018;-86
2021/10/24 07:14:00;;;;;;;9.25;4.03;;;;;;;;;;4980481;28;20027;-86
2021/10/24 07:16:26;;;;;;;9.50;4.15;;;;;;;;;;4996315;28;20034;-85
2021/10/24 07:18:52;;;;;;;9.73;4.43;;;;;;;;;;4993148;28;20029;-85
2021/10/24 07:21:18;;;;;;;9.50;4.60;;;;;;;;;;4980546;28;20394;-85
2021/10/24 07:23:44;;;;;;;11.93;4.82;;;;;;;;;;4995423;28;20022;-85
2021/10/24 07:26:10;;;;;;;5.88;3.70;;;;;;;;;;4995678;28;20074;-85
2021/10/24 07:28:36;;;;;;;10.00;4.18;;;;;;;;;;4992305;28;20029;-85
2021/10/24 07:31:02;;;;;;;8.45;4.70;;;;;;;;;;4993302;28;20391;-85
2021/10/24 07:33:28;;;;;;;7.68;3.78;;;;;;;;;;4979001;28;20045;-85
2021/10/24 07:35:54;;;;;;;9.65;3.72;;;;;;;;;;4996880;28;20029;-85
2021/10/24 07:38:20;;;;;;;9.20;4.18;;;;;;;;;;4985244;28;20057;-85
2021/10/24 07:40:50;;;;;;;9.32;4.32;;;;;;;;;;4993838;28;20030;-85
2021/10/24 07:43:22;;;;;;;12.98;4.82;;;;;;;;;;5005972;28;20113;-85
2021/10/24 07:45:49;;;;;;;7.50;4.32;;;;;;;;;;4980648;28;20029;-85
2021/10/24 07:48:15;;;;;;;9.93;4.35;;;;;;;;;;4993302;28;20030;-85
2021/10/24 07:50:43;;;;;;;11.23;4.95;;;;;;;;;;4990999;28;20018;-85
2021/10/24 07:53:09;;;;;;;25.65;12.18;;;;;;;;;;4986559;28;20159;-85
2021/10/24 07:55:35;;;;;;;19.27;11.38;;;;;;;;;;4995485;28;20087;-86
2021/10/24 07:58:02;;;;;;;12.10;7.53;;;;;;;;;;4979812;28;20505;-85
2021/10/24 08:00:29;;;;;;;9.98;4.97;;;;;;;;;;4995765;28;20080;-84
2021/10/24 08:02:55;;;;;;;12.07;6.28;;;;;;;;;;4978485;28;20031;-85
2021/10/24 08:05:21;;;;;;;15.77;9.30;;;;;;;;;;4991245;28;20027;-84
2021/10/24 08:07:47;;;;;;;10.57;7.28;;;;;;;;;;5006700;28;20485;-85
2021/10/24 08:10:14;;;;;;;9.90;4.15;;;;;;;;;;4983600;28;20062;-85
2021/10/24 08:12:44;;;;;;;7.25;4.32;;;;;;;;;;4995505;28;20030;-85
2021/10/24 08:15:11;;;;;;;9.40;5.28;;;;;;;;;;4995811;28;20022;-85
2021/10/24 08:17:38;;;;;;;10.18;4.32;;;;;;;;;;4979517;28;20129;-83
2021/10/24 08:20:04;;;;;;;7.72;4.10;;;;;;;;;;4991978;28;20029;-84
2021/10/24 08:22:32;;;;;;;11.45;4.53;;;;;;;;;;4996740;28;20038;-85
2021/10/24 08:24:58;;;;;;;10.48;5.35;;;;;;;;;;4979629;28;20033;-86
2021/10/24 08:27:24;;;;;;;5.68;3.90;;;;;;;;;;4991175;28;20049;-85
2021/10/24 08:29:50;;;;;;;16.38;7.70;;;;;;;;;;4980927;28;20109;-86
2021/10/24 08:32:16;;;;;;;12.00;7.25;;;;;;;;;;4978741;28;20035;-85
2021/10/24 08:34:42;;;;;;;8.38;3.63;;;;;;;;;;4996205;28;20049;-85
2021/10/24 08:37:09;;;;;;;13.25;3.90;;;;;;;;;;4959842;28;20046;-85
2021/10/24 08:39:36;;;;;;;8.10;4.20;;;;;;;;;;4969115;28;20065;-84
2021/10/24 08:42:02;;;;;;;9.32;4.72;;;;;;;;;;4977444;28;20035;-84
2021/10/24 08:44:29;;;;;;;9.75;4.20;;;;;;;;;;4995677;28;20022;-86
2021/10/24 08:46:56;;;;;;;7.50;3.85;;;;;;;;;;4993607;28;20058;-85
2021/10/24 08:49:22;;;;;;;7.30;3.60;;;;;;;;;;4977582;28;20037;-86
2021/10/24 08:51:49;;;;;;;18.10;14.20;;;;;;;;;;4996525;28;20014;-85
2021/10/24 08:54:16;;;;;;;7.90;3.25;;;;;;;;;;5014498;28;20393;-85
2021/10/24 08:56:42;;;;;;;8.43;3.08;;;;;;;;;;4997109;28;20084;-85
2021/10/24 08:59:08;;;;;;;15.60;9.70;;;;;;;;;;4984356;28;20121;-85
2021/10/24 09:01:49;;;;;;;4.82;3.10;;;;;;;;;;4987375;28;20014;-85
2021/10/24 09:04:15;;;;;;;7.50;3.33;;;;;;;;;;4995290;28;20022;-83
2021/10/24 09:07:01;;;;;;;8.35;3.45;;;;;;;;;;4990151;28;20094;-83
2021/10/24 09:09:36;;;;;;;6.85;3.30;;;;;;;;;;4969332;28;20026;-85
2021/10/24 09:12:04;;;;;;;10.88;6.40;;;;;;;;;;4986063;28;20498;-86
2021/10/24 09:14:37;;;;;;;7.32;3.03;;;;;;;;;;4974393;28;20391;-86
2021/10/24 09:17:04;;;;;;;6.78;3.58;;;;;;;;;;4985555;28;20061;-86
2021/10/24 09:19:37;;;;;;;4.82;2.45;;;;;;;;;;4984805;28;20489;-86
2021/10/24 09:22:14;;;;;;;3.60;2.20;;;;;;;;;;4987290;28;20066;-85
2021/10/24 09:24:40;;;;;;;6.53;2.78;;;;;;;;;;4986024;28;20084;-86
2021/10/24 09:27:14;;;;;;;7.07;2.53;;;;;;;;;;4997542;28;20047;-86
2021/10/24 09:29:48;;;;;;;8.60;2.30;;;;;;;;;;4998499;28;20022;-86
2021/10/24 09:32:14;;;;;;;6.18;2.13;;;;;;;;;;4994102;28;20037;-86
2021/10/24 09:34:40;;;;;;;7.55;3.70;;;;;;;;;;5011792;28;20026;-86
2021/10/24 09:37:06;;;;;;;6.22;2.13;;;;;;;;;;4991044;28;20030;-86
2021/10/24 09:39:36;;;;;;;7.05;2.00;;;;;;;;;;4976883;28;20034;-86
2021/10/24 09:42:26;;;;;;;6.75;1.60;;;;;;;;;;4994049;28;20046;-87
2021/10/24 09:45:08;;;;;;;6.05;2.50;;;;;;;;;;4989935;28;20034;-86
2021/10/24 09:47:35;;;;;;;10.13;2.85;;;;;;;;;;4989038;28;20030;-86
2021/10/24 09:50:02;;;;;;;3.05;2.00;;;;;;;;;;4987942;28;20092;-85
2021/10/24 09:52:29;;;;;;;3.85;1.83;;;;;;;;;;4989203;28;20037;-85
2021/10/24 09:54:55;;;;;;;7.25;2.05;;;;;;;;;;4990132;28;20386;-85
2021/10/24 09:57:22;;;;;;;5.38;1.55;;;;;;;;;;4988881;28;20476;-85
2021/10/24 09:59:49;;;;;;;3.70;1.48;;;;;;;;;;4974192;28;20066;-86
2021/10/24 10:02:19;;;;;;;6.88;2.85;;;;;;;;;;4989952;28;20041;-86
2021/10/24 10:04:45;;;;;;;3.13;1.95;;;;;;;;;;4964370;28;20117;-85
2021/10/24 10:07:11;;;;;;;4.82;1.60;;;;;;;;;;4985717;28;20033;-87
2021/10/24 10:09:38;;;;;;;4.72;1.58;;;;;;;;;;4989494;28;20036;-86
2021/10/24 10:12:04;;;;;;;3.53;1.70;;;;;;;;;;4965226;28;20030;-86
2021/10/24 10:14:31;;;;;;;2.92;1.75;;;;;;;;;;4988155;28;20086;-86
2021/10/24 10:16:59;;;;;;;6.20;1.35;;;;;;;;;;4986720;28;20031;-86
2021/10/24 10:19:30;;;;;;;4.63;2.00;;;;;;;;;;4974931;28;20068;-86
2021/10/24 10:21:56;;;;;;;3.85;1.40;;;;;;;;;;4975941;28;20566;-86
2021/10/24 10:24:34;;;;;;;2.35;1.20;;;;;;;;;;4991092;28;20026;-87
2021/10/24 10:27:00;;;;;;;2.20;1.20;;;;;;;;;;4986943;28;20544;-86
2021/10/24 10:29:45;;;;;;;7.85;1.38;;;;;;;;;;4975103;28;20084;-87
2021/10/24 10:32:12;;;;;;;2.95;1.55;;;;;;;;;;4972060;28;20074;-86
2021/10/24 10:35:11;;;;;;;2.47;1.17;;;;;;;;;;4986385;28;20500;-86
2021/10/24 10:37:55;;;;;;;4.97;1.40;;;;;;;;;;4930651;28;20134;-86
2021/10/24 10:40:22;;;;;;;2.58;1.30;;;;;;;;;;4989091;28;20161;-85
2021/10/24 10:42:51;;;;;;;3.00;1.60;;;;;;;;;;4972779;28;20034;-86
2021/10/24 10:45:16;;;;;;;1.92;1.15;;;;;;;;;;4996246;28;20030;-85
2021/10/24 10:48:03;;;;;;;5.18;1.10;;;;;;;;;;4995103;28;20026;-85
2021/10/24 10:50:43;;;;;;;5.32;1.40;;;;;;;;;;4996082;28;20022;-85
2021/10/24 10:53:10;;;;;;;3.58;1.35;;;;;;;;;;4988689;28;20644;-86
2021/10/24 10:55:55;;;;;;;3.72;1.30;;;;;;;;;;4994358;28;20133;-84
2021/10/24 10:58:34;;;;;;;2.60;0.88;;;;;;;;;;4979331;28;20030;-85
2021/10/24 11:01:00;;;;;;;5.10;1.00;;;;;;;;;;4994673;28;20023;-85
2021/10/24 11:03:46;;;;;;;3.25;1.13;;;;;;;;;;4988963;28;20093;-85
2021/10/24 11:06:32;;;;;;;3.72;1.17;;;;;;;;;;4996514;28;20036;-85
2021/10/24 11:08:59;;;;;;;3.05;0.70;;;;;;;;;;4982991;28;20035;-85
2021/10/24 11:11:40;;;;;;;1.92;0.50;;;;;;;;;;4993292;28;20116;-85
2021/10/24 11:14:16;;;;;;;5.50;1.17;;;;;;;;;;4975924;28;20031;-85
2021/10/24 11:16:43;;;;;;;4.93;0.73;;;;;;;;;;4975475;28;20097;-85
2021/10/24 11:19:37;;;;;;;3.28;0.73;;;;;;;;;;4977020;28;20166;-85
2021/10/24 11:22:10;;;;;;;1.55;0.63;;;;;;;;;;4979083;28;20034;-85
2021/10/24 11:24:36;;;;;;;;;;;;;;;;;;4996295;28;20363;-86
2021/10/24 11:27:03;;;;;;;2.20;0.77;;;;;;;;;;4963221;28;19973;-86
2021/10/24 11:29:30;;;;;;;3.00;1.08;;;;;;;;;;4980001;28;20027;-86
2021/10/24 11:32:15;;;;;;;1.65;0.93;;;;;;;;;;5000345;28;20061;-87
2021/10/24 11:34:41;;;;;;;1.20;0.50;;;;;;;;;;4995679;28;20026;-87
2021/10/24 11:37:08;;;;;;;4.18;0.60;;;;;;;;;;5015127;28;20029;-87
2021/10/24 11:39:34;;;;;;;2.13;0.63;;;;;;;;;;5007891;28;20118;-87
2021/10/24 11:42:10;;;;;;;2.05;0.40;;;;;;;;;;4995288;28;20069;-87
2021/10/24 11:44:36;;;;;;;2.67;0.50;;;;;;;;;;4978739;28;20023;-87
2021/10/24 11:47:06;;;;;;;1.75;0.50;;;;;;;;;;4995173;28;20120;-86
2021/10/24 11:50:02;;;;;;;2.20;0.60;;;;;;;;;;4979546;28;20057;-87
2021/10/24 11:52:31;;;;;;;1.90;0.40;;;;;;;;;;4989256;28;20489;-84
2021/10/24 11:55:05;;;;;;;1.00;0.32;;;;;;;;;;5014722;28;20516;-84
2021/10/24 11:57:48;;;;;;;2.38;0.95;;;;;;;;;;5000655;28;20046;-85
2021/10/24 12:00:28;;;;;;;1.45;0.40;;;;;;;;;;4979126;28;20117;-84
2021/10/24 12:02:55;;;;;;;0.98;0.30;;;;;;;;;;4994571;28;20031;-84
2021/10/24 12:05:21;;;;;;;1.90;0.47;;;;;;;;;;4966190;28;20037;-84
2021/10/24 12:07:52;;;;;;;1.98;0.40;;;;;;;;;;4995078;28;20387;-85
2021/10/24 12:10:18;;;;;;;1.80;0.40;;;;;;;;;;4995230;28;20044;-85
2021/10/24 12:12:44;;;;;;;3.55;0.50;;;;;;;;;;4995965;28;20105;-86
2021/10/24 12:15:13;;;;;;;0.90;0.40;;;;;;;;;;4978868;28;20389;-84
2021/10/24 12:17:40;;;;;;;1.73;0.40;;;;;;;;;;4978298;28;20030;-85
2021/10/24 12:20:07;;;;;;;1.25;0.35;;;;;;;;;;4973414;28;20026;-85
2021/10/24 12:22:37;;;;;;;2.75;0.73;;;;;;;;;;4971410;28;20070;-85
2021/10/24 12:25:10;;;;;;;1.08;0.38;;;;;;;;;;4991238;28;20030;-85
2021/10/24 12:27:37;;;;;;;1.40;0.38;;;;;;;;;;4975672;28;20038;-86
2021/10/24 12:30:06;;;;;;;1.27;0.32;;;;;;;;;;4973957;28;20034;-84
2021/10/24 12:32:32;;;;;;;3.10;0.57;;;;;;;;;;4995818;28;20022;-85
2021/10/24 12:34:59;;;;;;;1.77;0.60;;;;;;;;;;4994441;28;20031;-85
2021/10/24 12:37:26;;;;;;;0.77;0.45;;;;;;;;;;4978534;28;20077;-84
2021/10/24 12:40:11;;;;;;;2.85;0.57;;;;;;;;;;4978011;28;20474;-84
2021/10/24 12:42:37;;;;;;;1.52;0.43;;;;;;;;;;4978139;28;20038;-86
2021/10/24 12:45:13;;;;;;;1.02;0.57;;;;;;;;;;4980208;28;20023;-86
2021/10/24 12:47:39;;;;;;;2.85;0.50;;;;;;;;;;4990193;28;20026;-87
2021/10/24 12:50:06;;;;;;;1.52;0.35;;;;;;;;;;4991424;28;20422;-87
2021/10/24 12:52:34;;;;;;;0.80;0.30;;;;;;;;;;4998350;28;20369;-87
2021/10/24 12:55:03;;;;;;;4.80;0.43;;;;;;;;;;4977358;28;20034;-88
2021/10/24 12:57:29;;;;;;;4.13;0.75;;;;;;;;;;4993261;28;20030;-87
2021/10/24 12:59:55;;;;;;;0.22;0.20;;;;;;;;;;4993226;28;20049;-87
2021/10/24 13:02:21;;;;;;;0.57;0.40;;;;;;;;;;4983166;28;20097;-87
2021/10/24 13:04:48;;;;;;;2.42;0.60;;;;;;;;;;4969021;28;20026;-87
2021/10/24 13:07:14;;;;;;;1.45;0.38;;;;;;;;;;4996330;28;20041;-88
2021/10/24 13:09:40;;;;;;;1.45;0.20;;;;;;;;;;4990753;28;20471;-88
2021/10/24 13:12:06;;;;;;;0.85;0.30;;;;;;;;;;4974193;28;20041;-87
2021/10/24 13:14:32;;;;;;;1.27;0.30;;;;;;;;;;4961796;28;20077;-87
2021/10/24 13:16:58;;;;;;;1.20;0.47;;;;;;;;;;4993237;28;20023;-87
2021/10/24 13:19:24;;;;;;;0.60;0.45;;;;;;;;;;4979405;28;20044;-86
2021/10/24 13:24:16;;;;;;;1.35;0.50;;;;;;;;;;4994864;28;20030;-84
2021/10/24 13:26:44;;;;;;;3.22;0.55;;;;;;;;;;4976704;28;20509;-84
2021/10/24 13:29:11;;;;;;;1.40;0.47;;;;;;;;;;4993315;28;20018;-84
2021/10/24 13:31:37;;;;;;;1.60;0.40;;;;;;;;;;4977230;28;20034;-84
2021/10/24 13:34:04;;;;;;;0.75;0.20;;;;;;;;;;4977234;28;20545;-84
2021/10/24 13:36:32;;;;;;;0.73;0.35;;;;;;;;;;5006879;28;20086;-84
2021/10/24 13:38:59;;;;;;;2.55;0.40;;;;;;;;;;4992295;28;20019;-84
2021/10/24 13:41:25;;;;;;;2.60;0.47;;;;;;;;;;4976822;28;20478;-84
2021/10/24 13:43:51;;;;;;;1.92;0.40;;;;;;;;;;4992977;28;20026;-84
2021/10/24 13:46:17;;;;;;;0.70;0.40;;;;;;;;;;4978383;28;20026;-84
2021/10/24 13:48:44;;;;;;;2.78;0.70;;;;;;;;;;4976811;28;20042;-84
2021/10/24 13:51:10;;;;;;;2.10;0.80;;;;;;;;;;4994780;28;20042;-84
2021/10/24 13:53:36;;;;;;;1.92;0.47;;;;;;;;;;4981821;28;20026;-86
2021/10/24 13:56:02;;;;;;;1.77;0.50;;;;;;;;;;4988383;28;20077;-87
2021/10/24 13:58:28;;;;;;;0.80;0.50;;;;;;;;;;4976981;28;20054;-88
2021/10/24 14:00:54;;;;;;;2.63;0.73;;;;;;;;;;4998435;28;20033;-86
2021/10/24 14:03:23;;;;;;;0.73;0.50;;;;;;;;;;4990430;28;20074;-85
2021/10/24 14:08:55;;;;;;;1.38;0.68;;;;;;;;;;4982301;28;20041;-87
2021/10/24 14:11:22;;;;;;;2.17;0.50;;;;;;;;;;4989947;28;20049;-86
2021/10/24 14:13:48;;;;;;;1.27;0.50;;;;;;;;;;4992580;28;20042;-86
2021/10/24 14:16:15;;;;;;;4.75;0.73;;;;;;;;;;4989688;28;20023;-86
2021/10/24 14:18:41;;;;;;;5.07;0.80;;;;;;;;;;4987466;28;20018;-86
2021/10/24 14:21:08;;;;;;;2.17;0.60;;;;;;;;;;4991113;28;20149;-86
2021/10/24 14:23:34;;;;;;;1.67;0.60;;;;;;;;;;4986944;28;20030;-85
2021/10/24 14:26:01;;;;;;;2.67;0.90;;;;;;;;;;4986570;28;20057;-86
2021/10/24 14:28:27;;;;;;;4.05;0.60;;;;;;;;;;4988802;28;20035;-86
2021/10/24 14:30:53;;;;;;;2.03;0.80;;;;;;;;;;4992153;28;20065;-86
2021/10/24 14:33:18;;;;;;;2.38;0.60;;;;;;;;;;4994461;28;20030;-86
2021/10/24 14:35:45;;;;;;;2.10;0.88;;;;;;;;;;4993698;28;20430;-86
2021/10/24 14:38:11;;;;;;;1.15;0.60;;;;;;;;;;4976414;28;20069;-86
2021/10/24 14:40:37;;;;;;;1.38;0.70;;;;;;;;;;4969514;28;20038;-86
2021/10/24 14:43:03;;;;;;;2.95;1.33;;;;;;;;;;4991834;28;20382;-86
2021/10/24 14:45:30;;;;;;;2.72;0.90;;;;;;;;;;4993939;28;20540;-85
2021/10/24 14:47:56;;;;;;;5.60;1.20;;;;;;;;;;4976507;28;20062;-85
2021/10/24 14:50:22;;;;;;;1.92;1.02;;;;;;;;;;4990218;28;20467;-85